Telford, United Kingdom
Current Conditions -  °F | °C
As of 10:50 PM on Tuesday 27 Jan 2015 (Local Time) from EGOS Reporting Station
Broken Clouds Broken Clouds  
Wind Chill: 36°   Ceiling: 1600
Heat Index: 43°   Visibility: 6mi
Dew Point: 39°   Wind: 13mph
Humidity: 87%   Direction: 200°SSW
Pressure: 30"   Gusts: NA
Location:  52.68°N, 2.45°W
Report Text: EGOS 272250Z 20011KT 9999 BKN016 BKN050 06/04 Q1016 WHT NOSIG
Loading
Personal Weather Stations






























Interactive Weather Map New forecast layout! Learn more

10-Day Weather Forecast

Advertisements
Track Severe Weather on mobile